sensor_id;sensor_type;location;lat;lon;timestamp;P1;durP1;ratioP1;P2;durP2;ratioP2
39948;SDS011;29070;48.102;-1.652;2022-10-16T00:00:00;5.03;;;1.50;;
39948;SDS011;29070;48.102;-1.652;2022-10-16T00:05:00;5.33;;;2.37;;
39948;SDS011;29070;48.102;-1.652;2022-10-16T00:10:01;2.87;;;1.87;;
39948;SDS011;29070;48.102;-1.652;2022-10-16T00:15:01;4.77;;;2.00;;
39948;SDS011;29070;48.102;-1.652;2022-10-16T00:20:01;5.45;;;2.35;;
39948;SDS011;29070;48.102;-1.652;2022-10-16T00:25:02;7.20;;;2.30;;
39948;SDS011;29070;48.102;-1.652;2022-10-16T00:30:03;7.50;;;2.50;;
39948;SDS011;29070;48.102;-1.652;2022-10-16T00:35:04;7.65;;;2.30;;
39948;SDS011;29070;48.102;-1.652;2022-10-16T00:40:05;9.45;;;3.20;;
39948;SDS011;29070;48.102;-1.652;2022-10-16T00:45:06;7.57;;;2.53;;
39948;SDS011;29070;48.102;-1.652;2022-10-16T00:50:09;7.15;;;3.00;;
39948;SDS011;29070;48.102;-1.652;2022-10-16T00:55:16;8.10;;;3.30;;
39948;SDS011;29070;48.102;-1.652;2022-10-16T01:00:20;10.07;;;3.22;;
39948;SDS011;29070;48.102;-1.652;2022-10-16T01:05:23;6.20;;;3.15;;
39948;SDS011;29070;48.102;-1.652;2022-10-16T01:10:52;7.70;;;3.00;;
39948;SDS011;29070;48.102;-1.652;2022-10-16T01:31:37;9.93;;;3.22;;
39948;SDS011;29070;48.102;-1.652;2022-10-16T01:36:42;10.13;;;3.08;;
39948;SDS011;29070;48.102;-1.652;2022-10-16T01:41:58;6.13;;;2.60;;
39948;SDS011;29070;48.102;-1.652;2022-10-16T01:47:11;7.82;;;3.05;;
39948;SDS011;29070;48.102;-1.652;2022-10-16T01:52:14;11.57;;;2.83;;
39948;SDS011;29070;48.102;-1.652;2022-10-16T01:57:20;5.38;;;2.58;;
39948;SDS011;29070;48.102;-1.652;2022-10-16T02:02:21;9.93;;;2.85;;
39948;SDS011;29070;48.102;-1.652;2022-10-16T02:07:22;9.18;;;2.60;;
39948;SDS011;29070;48.102;-1.652;2022-10-16T02:12:31;11.93;;;2.55;;
39948;SDS011;29070;48.102;-1.652;2022-10-16T02:17:35;8.75;;;2.50;;
39948;SDS011;29070;48.102;-1.652;2022-10-16T02:22:37;8.52;;;2.80;;
39948;SDS011;29070;48.102;-1.652;2022-10-16T02:32:53;8.95;;;2.70;;
39948;SDS011;29070;48.102;-1.652;2022-10-16T02:37:54;13.60;;;3.28;;
39948;SDS011;29070;48.102;-1.652;2022-10-16T02:42:56;10.52;;;3.25;;
39948;SDS011;29070;48.102;-1.652;2022-10-16T02:47:56;9.80;;;3.73;;
39948;SDS011;29070;48.102;-1.652;2022-10-16T02:52:56;8.10;;;2.97;;
39948;SDS011;29070;48.102;-1.652;2022-10-16T02:57:57;13.83;;;3.43;;
39948;SDS011;29070;48.102;-1.652;2022-10-16T03:02:57;7.13;;;3.30;;
39948;SDS011;29070;48.102;-1.652;2022-10-16T03:07:57;13.67;;;4.00;;
39948;SDS011;29070;48.102;-1.652;2022-10-16T03:13:00;8.23;;;3.88;;
39948;SDS011;29070;48.102;-1.652;2022-10-16T03:18:00;9.47;;;3.50;;
39948;SDS011;29070;48.102;-1.652;2022-10-16T03:23:00;12.75;;;3.85;;
39948;SDS011;29070;48.102;-1.652;2022-10-16T03:28:02;9.60;;;3.40;;
39948;SDS011;29070;48.102;-1.652;2022-10-16T03:33:03;9.77;;;3.42;;
39948;SDS011;29070;48.102;-1.652;2022-10-16T03:38:03;8.57;;;3.57;;
39948;SDS011;29070;48.102;-1.652;2022-10-16T03:43:03;12.33;;;3.17;;
39948;SDS011;29070;48.102;-1.652;2022-10-16T03:48:04;9.60;;;3.07;;
39948;SDS011;29070;48.102;-1.652;2022-10-16T03:53:04;8.87;;;3.27;;
39948;SDS011;29070;48.102;-1.652;2022-10-16T03:58:04;11.27;;;3.57;;
39948;SDS011;29070;48.102;-1.652;2022-10-16T04:03:05;11.23;;;3.60;;
39948;SDS011;29070;48.102;-1.652;2022-10-16T04:08:05;11.00;;;3.53;;
39948;SDS011;29070;48.102;-1.652;2022-10-16T04:13:06;13.32;;;3.80;;
39948;SDS011;29070;48.102;-1.652;2022-10-16T04:18:06;9.67;;;3.13;;
39948;SDS011;29070;48.102;-1.652;2022-10-16T04:23:06;14.00;;;3.40;;
39948;SDS011;29070;48.102;-1.652;2022-10-16T04:28:07;11.07;;;3.70;;
39948;SDS011;29070;48.102;-1.652;2022-10-16T04:33:08;15.40;;;4.00;;
39948;SDS011;29070;48.102;-1.652;2022-10-16T04:38:09;13.98;;;3.80;;
39948;SDS011;29070;48.102;-1.652;2022-10-16T04:43:09;13.17;;;4.00;;
39948;SDS011;29070;48.102;-1.652;2022-10-16T04:48:10;17.92;;;3.67;;
39948;SDS011;29070;48.102;-1.652;2022-10-16T04:53:10;12.50;;;3.80;;
39948;SDS011;29070;48.102;-1.652;2022-10-16T04:58:11;15.48;;;3.67;;
39948;SDS011;29070;48.102;-1.652;2022-10-16T05:03:12;13.48;;;4.40;;
39948;SDS011;29070;48.102;-1.652;2022-10-16T05:08:14;10.88;;;3.60;;
39948;SDS011;29070;48.102;-1.652;2022-10-16T05:13:15;15.32;;;4.45;;
39948;SDS011;29070;48.102;-1.652;2022-10-16T05:18:16;15.10;;;4.37;;
39948;SDS011;29070;48.102;-1.652;2022-10-16T05:23:17;15.35;;;4.07;;
39948;SDS011;29070;48.102;-1.652;2022-10-16T05:28:17;10.67;;;4.43;;
39948;SDS011;29070;48.102;-1.652;2022-10-16T05:33:19;10.33;;;3.40;;
39948;SDS011;29070;48.102;-1.652;2022-10-16T05:38:20;16.70;;;4.57;;
39948;SDS011;29070;48.102;-1.652;2022-10-16T05:43:21;14.60;;;5.37;;
39948;SDS011;29070;48.102;-1.652;2022-10-16T05:48:22;13.65;;;4.55;;
39948;SDS011;29070;48.102;-1.652;2022-10-16T05:53:23;13.60;;;4.25;;
39948;SDS011;29070;48.102;-1.652;2022-10-16T05:58:28;14.27;;;4.55;;
39948;SDS011;29070;48.102;-1.652;2022-10-16T06:03:29;15.35;;;4.28;;
39948;SDS011;29070;48.102;-1.652;2022-10-16T06:08:29;20.92;;;4.40;;
39948;SDS011;29070;48.102;-1.652;2022-10-16T06:13:31;15.93;;;4.40;;
39948;SDS011;29070;48.102;-1.652;2022-10-16T06:18:32;20.80;;;5.13;;
39948;SDS011;29070;48.102;-1.652;2022-10-16T06:23:32;15.93;;;4.67;;
39948;SDS011;29070;48.102;-1.652;2022-10-16T06:28:32;21.63;;;5.97;;
39948;SDS011;29070;48.102;-1.652;2022-10-16T06:33:33;27.13;;;5.20;;
39948;SDS011;29070;48.102;-1.652;2022-10-16T06:38:34;26.48;;;5.60;;
39948;SDS011;29070;48.102;-1.652;2022-10-16T06:43:35;24.08;;;6.50;;
39948;SDS011;29070;48.102;-1.652;2022-10-16T06:48:36;17.77;;;5.63;;
39948;SDS011;29070;48.102;-1.652;2022-10-16T06:53:38;16.77;;;5.63;;
39948;SDS011;29070;48.102;-1.652;2022-10-16T06:58:40;18.90;;;5.15;;
39948;SDS011;29070;48.102;-1.652;2022-10-16T07:03:43;12.13;;;4.80;;
39948;SDS011;29070;48.102;-1.652;2022-10-16T07:08:45;9.52;;;4.28;;
39948;SDS011;29070;48.102;-1.652;2022-10-16T07:13:46;10.32;;;4.32;;
39948;SDS011;29070;48.102;-1.652;2022-10-16T07:18:48;8.65;;;3.60;;
39948;SDS011;29070;48.102;-1.652;2022-10-16T07:23:52;13.63;;;3.92;;
39948;SDS011;29070;48.102;-1.652;2022-10-16T07:28:53;6.07;;;2.40;;
39948;SDS011;29070;48.102;-1.652;2022-10-16T07:33:54;3.33;;;1.25;;
39948;SDS011;29070;48.102;-1.652;2022-10-16T07:38:55;2.42;;;1.00;;
39948;SDS011;29070;48.102;-1.652;2022-10-16T07:43:56;2.33;;;0.90;;
39948;SDS011;29070;48.102;-1.652;2022-10-16T07:48:59;3.92;;;0.80;;
39948;SDS011;29070;48.102;-1.652;2022-10-16T07:54:00;3.83;;;1.23;;
39948;SDS011;29070;48.102;-1.652;2022-10-16T07:59:00;3.55;;;1.10;;
39948;SDS011;29070;48.102;-1.652;2022-10-16T08:04:01;1.70;;;0.90;;
39948;SDS011;29070;48.102;-1.652;2022-10-16T08:09:01;3.13;;;1.10;;
39948;SDS011;29070;48.102;-1.652;2022-10-16T08:14:02;6.45;;;1.00;;
39948;SDS011;29070;48.102;-1.652;2022-10-16T08:19:02;5.10;;;1.20;;
39948;SDS011;29070;48.102;-1.652;2022-10-16T08:24:03;1.08;;;0.80;;
39948;SDS011;29070;48.102;-1.652;2022-10-16T08:29:03;2.20;;;0.68;;
39948;SDS011;29070;48.102;-1.652;2022-10-16T08:34:03;1.23;;;0.80;;
39948;SDS011;29070;48.102;-1.652;2022-10-16T08:39:04;2.17;;;0.98;;
39948;SDS011;29070;48.102;-1.652;2022-10-16T08:49:27;2.88;;;1.20;;
39948;SDS011;29070;48.102;-1.652;2022-10-16T08:54:29;1.95;;;0.95;;
39948;SDS011;29070;48.102;-1.652;2022-10-16T08:59:34;3.30;;;0.60;;
39948;SDS011;29070;48.102;-1.652;2022-10-16T09:04:50;3.73;;;0.90;;
39948;SDS011;29070;48.102;-1.652;2022-10-16T09:20:51;2.05;;;0.55;;
39948;SDS011;29070;48.102;-1.652;2022-10-16T09:25:58;4.60;;;0.90;;
39948;SDS011;29070;48.102;-1.652;2022-10-16T09:30:59;2.60;;;0.60;;
39948;SDS011;29070;48.102;-1.652;2022-10-16T09:35:59;2.13;;;0.70;;
39948;SDS011;29070;48.102;-1.652;2022-10-16T09:41:03;4.85;;;0.50;;
39948;SDS011;29070;48.102;-1.652;2022-10-16T09:46:26;3.45;;;0.70;;
39948;SDS011;29070;48.102;-1.652;2022-10-16T09:51:31;2.67;;;0.40;;
39948;SDS011;29070;48.102;-1.652;2022-10-16T09:56:36;3.55;;;1.10;;
39948;SDS011;29070;48.102;-1.652;2022-10-16T10:01:40;2.08;;;0.40;;
39948;SDS011;29070;48.102;-1.652;2022-10-16T10:06:46;4.15;;;0.50;;
39948;SDS011;29070;48.102;-1.652;2022-10-16T10:22:20;1.08;;;0.52;;
39948;SDS011;29070;48.102;-1.652;2022-10-16T10:33:09;2.50;;;0.50;;
39948;SDS011;29070;48.102;-1.652;2022-10-16T10:38:20;2.90;;;0.50;;
39948;SDS011;29070;48.102;-1.652;2022-10-16T10:48:39;3.63;;;0.50;;
39948;SDS011;29070;48.102;-1.652;2022-10-16T11:09:58;3.00;;;0.63;;
39948;SDS011;29070;48.102;-1.652;2022-10-16T11:15:12;1.77;;;0.60;;
39948;SDS011;29070;48.102;-1.652;2022-10-16T11:20:18;4.22;;;0.90;;
39948;SDS011;29070;48.102;-1.652;2022-10-16T11:25:23;4.82;;;1.00;;
39948;SDS011;29070;48.102;-1.652;2022-10-16T11:30:28;4.53;;;0.85;;
39948;SDS011;29070;48.102;-1.652;2022-10-16T11:40:35;5.07;;;1.20;;
39948;SDS011;29070;48.102;-1.652;2022-10-16T11:45:45;4.07;;;1.20;;
39948;SDS011;29070;48.102;-1.652;2022-10-16T11:51:02;6.70;;;1.58;;
39948;SDS011;29070;48.102;-1.652;2022-10-16T11:56:15;3.75;;;1.70;;
39948;SDS011;29070;48.102;-1.652;2022-10-16T12:11:37;4.15;;;1.77;;
39948;SDS011;29070;48.102;-1.652;2022-10-16T12:16:39;2.97;;;2.03;;
39948;SDS011;29070;48.102;-1.652;2022-10-16T12:21:54;8.65;;;1.17;;
39948;SDS011;29070;48.102;-1.652;2022-10-16T12:26:57;3.72;;;1.33;;
39948;SDS011;29070;48.102;-1.652;2022-10-16T12:31:57;6.63;;;1.70;;
39948;SDS011;29070;48.102;-1.652;2022-10-16T12:37:07;3.20;;;1.40;;
39948;SDS011;29070;48.102;-1.652;2022-10-16T12:42:21;4.47;;;1.40;;
39948;SDS011;29070;48.102;-1.652;2022-10-16T12:52:36;6.68;;;2.08;;
39948;SDS011;29070;48.102;-1.652;2022-10-16T12:57:45;5.20;;;2.08;;
39948;SDS011;29070;48.102;-1.652;2022-10-16T13:08:48;3.00;;;2.38;;
39948;SDS011;29070;48.102;-1.652;2022-10-16T13:29:30;3.47;;;2.83;;
39948;SDS011;29070;48.102;-1.652;2022-10-16T13:34:31;2.92;;;1.90;;
39948;SDS011;29070;48.102;-1.652;2022-10-16T13:39:32;6.97;;;6.47;;
39948;SDS011;29070;48.102;-1.652;2022-10-16T13:44:35;3.80;;;3.47;;
39948;SDS011;29070;48.102;-1.652;2022-10-16T13:49:41;2.55;;;2.13;;
39948;SDS011;29070;48.102;-1.652;2022-10-16T13:54:41;3.23;;;3.00;;
39948;SDS011;29070;48.102;-1.652;2022-10-16T13:59:41;3.87;;;2.57;;
39948;SDS011;29070;48.102;-1.652;2022-10-16T14:04:42;3.17;;;1.00;;
39948;SDS011;29070;48.102;-1.652;2022-10-16T14:09:42;2.43;;;1.27;;
39948;SDS011;29070;48.102;-1.652;2022-10-16T14:14:51;4.13;;;1.02;;
39948;SDS011;29070;48.102;-1.652;2022-10-16T14:19:54;1.88;;;1.23;;
39948;SDS011;29070;48.102;-1.652;2022-10-16T14:40:29;1.17;;;1.00;;
39948;SDS011;29070;48.102;-1.652;2022-10-16T14:45:32;1.85;;;1.13;;
39948;SDS011;29070;48.102;-1.652;2022-10-16T14:50:35;1.38;;;0.65;;
39948;SDS011;29070;48.102;-1.652;2022-10-16T14:55:36;1.53;;;0.80;;
39948;SDS011;29070;48.102;-1.652;2022-10-16T15:00:37;1.67;;;0.73;;
39948;SDS011;29070;48.102;-1.652;2022-10-16T15:05:37;5.43;;;5.00;;
39948;SDS011;29070;48.102;-1.652;2022-10-16T15:10:40;3.33;;;1.03;;
39948;SDS011;29070;48.102;-1.652;2022-10-16T15:20:47;0.98;;;0.60;;
39948;SDS011;29070;48.102;-1.652;2022-10-16T15:25:51;3.70;;;0.95;;
39948;SDS011;29070;48.102;-1.652;2022-10-16T15:30:53;1.10;;;0.70;;
39948;SDS011;29070;48.102;-1.652;2022-10-16T15:35:55;2.30;;;0.93;;
39948;SDS011;29070;48.102;-1.652;2022-10-16T15:40:56;2.42;;;0.88;;
39948;SDS011;29070;48.102;-1.652;2022-10-16T15:46:04;2.83;;;0.90;;
39948;SDS011;29070;48.102;-1.652;2022-10-16T15:51:08;1.73;;;0.98;;
39948;SDS011;29070;48.102;-1.652;2022-10-16T15:56:09;2.00;;;1.05;;
39948;SDS011;29070;48.102;-1.652;2022-10-16T16:01:11;3.03;;;1.25;;
39948;SDS011;29070;48.102;-1.652;2022-10-16T16:06:12;1.80;;;1.20;;
39948;SDS011;29070;48.102;-1.652;2022-10-16T16:11:14;3.70;;;1.30;;
39948;SDS011;29070;48.102;-1.652;2022-10-16T16:16:16;2.08;;;1.50;;
39948;SDS011;29070;48.102;-1.652;2022-10-16T16:21:17;4.82;;;1.70;;
39948;SDS011;29070;48.102;-1.652;2022-10-16T16:26:28;2.70;;;1.37;;
39948;SDS011;29070;48.102;-1.652;2022-10-16T16:31:33;4.15;;;1.77;;
39948;SDS011;29070;48.102;-1.652;2022-10-16T16:36:34;3.08;;;1.77;;
39948;SDS011;29070;48.102;-1.652;2022-10-16T16:41:35;4.47;;;2.00;;
39948;SDS011;29070;48.102;-1.652;2022-10-16T16:46:36;3.43;;;1.67;;
39948;SDS011;29070;48.102;-1.652;2022-10-16T16:51:37;4.97;;;1.92;;
39948;SDS011;29070;48.102;-1.652;2022-10-16T16:56:38;5.10;;;2.08;;
39948;SDS011;29070;48.102;-1.652;2022-10-16T17:01:39;4.88;;;2.35;;
39948;SDS011;29070;48.102;-1.652;2022-10-16T17:06:39;4.60;;;2.40;;
39948;SDS011;29070;48.102;-1.652;2022-10-16T17:11:40;6.32;;;2.67;;
39948;SDS011;29070;48.102;-1.652;2022-10-16T17:16:42;8.55;;;3.03;;
39948;SDS011;29070;48.102;-1.652;2022-10-16T17:21:44;9.18;;;3.17;;
39948;SDS011;29070;48.102;-1.652;2022-10-16T17:26:44;7.10;;;3.63;;
39948;SDS011;29070;48.102;-1.652;2022-10-16T17:31:47;6.25;;;3.72;;
39948;SDS011;29070;48.102;-1.652;2022-10-16T17:36:51;7.45;;;3.47;;
39948;SDS011;29070;48.102;-1.652;2022-10-16T17:41:52;5.63;;;3.65;;
39948;SDS011;29070;48.102;-1.652;2022-10-16T17:46:53;6.80;;;3.15;;
39948;SDS011;29070;48.102;-1.652;2022-10-16T17:51:53;8.63;;;4.53;;
39948;SDS011;29070;48.102;-1.652;2022-10-16T17:56:54;9.63;;;5.17;;
39948;SDS011;29070;48.102;-1.652;2022-10-16T18:01:54;7.90;;;4.00;;
39948;SDS011;29070;48.102;-1.652;2022-10-16T18:06:55;7.33;;;3.10;;
39948;SDS011;29070;48.102;-1.652;2022-10-16T18:11:55;7.45;;;2.67;;
39948;SDS011;29070;48.102;-1.652;2022-10-16T18:16:59;4.22;;;2.60;;
39948;SDS011;29070;48.102;-1.652;2022-10-16T18:22:00;4.30;;;2.17;;
39948;SDS011;29070;48.102;-1.652;2022-10-16T18:27:00;4.80;;;3.10;;
39948;SDS011;29070;48.102;-1.652;2022-10-16T18:32:00;3.87;;;2.63;;
39948;SDS011;29070;48.102;-1.652;2022-10-16T18:37:01;5.87;;;3.13;;
39948;SDS011;29070;48.102;-1.652;2022-10-16T18:42:01;5.50;;;2.80;;
39948;SDS011;29070;48.102;-1.652;2022-10-16T18:47:01;4.10;;;2.37;;
39948;SDS011;29070;48.102;-1.652;2022-10-16T18:52:02;6.32;;;2.53;;
39948;SDS011;29070;48.102;-1.652;2022-10-16T18:57:03;7.10;;;2.63;;
39948;SDS011;29070;48.102;-1.652;2022-10-16T19:02:03;4.80;;;2.45;;
39948;SDS011;29070;48.102;-1.652;2022-10-16T19:07:04;11.13;;;2.60;;
39948;SDS011;29070;48.102;-1.652;2022-10-16T19:12:04;7.77;;;2.90;;
39948;SDS011;29070;48.102;-1.652;2022-10-16T19:17:06;6.50;;;2.70;;
39948;SDS011;29070;48.102;-1.652;2022-10-16T19:22:07;7.22;;;4.25;;
39948;SDS011;29070;48.102;-1.652;2022-10-16T19:27:10;9.13;;;2.92;;
39948;SDS011;29070;48.102;-1.652;2022-10-16T19:32:11;6.20;;;3.08;;
39948;SDS011;29070;48.102;-1.652;2022-10-16T19:37:11;7.40;;;3.03;;
39948;SDS011;29070;48.102;-1.652;2022-10-16T19:42:12;4.97;;;3.00;;
39948;SDS011;29070;48.102;-1.652;2022-10-16T19:47:12;4.83;;;2.80;;
39948;SDS011;29070;48.102;-1.652;2022-10-16T19:52:13;6.90;;;3.57;;
39948;SDS011;29070;48.102;-1.652;2022-10-16T19:57:13;4.13;;;2.50;;
39948;SDS011;29070;48.102;-1.652;2022-10-16T20:02:13;5.95;;;2.85;;
39948;SDS011;29070;48.102;-1.652;2022-10-16T20:07:14;6.70;;;3.15;;
39948;SDS011;29070;48.102;-1.652;2022-10-16T20:12:15;3.83;;;2.40;;
39948;SDS011;29070;48.102;-1.652;2022-10-16T20:17:16;7.68;;;3.00;;
39948;SDS011;29070;48.102;-1.652;2022-10-16T20:22:16;7.03;;;2.70;;
39948;SDS011;29070;48.102;-1.652;2022-10-16T20:27:16;5.70;;;3.00;;
39948;SDS011;29070;48.102;-1.652;2022-10-16T20:32:17;7.83;;;3.13;;
39948;SDS011;29070;48.102;-1.652;2022-10-16T20:37:17;8.53;;;3.13;;
39948;SDS011;29070;48.102;-1.652;2022-10-16T20:42:17;10.73;;;2.90;;
39948;SDS011;29070;48.102;-1.652;2022-10-16T20:47:18;6.67;;;2.83;;
39948;SDS011;29070;48.102;-1.652;2022-10-16T20:52:18;5.23;;;2.90;;
39948;SDS011;29070;48.102;-1.652;2022-10-16T20:57:18;5.00;;;2.73;;
39948;SDS011;29070;48.102;-1.652;2022-10-16T21:02:19;8.77;;;2.90;;
39948;SDS011;29070;48.102;-1.652;2022-10-16T21:07:22;5.07;;;2.78;;
39948;SDS011;29070;48.102;-1.652;2022-10-16T21:12:23;8.67;;;2.73;;
39948;SDS011;29070;48.102;-1.652;2022-10-16T21:17:24;5.22;;;2.60;;
39948;SDS011;29070;48.102;-1.652;2022-10-16T21:22:27;8.97;;;2.73;;
39948;SDS011;29070;48.102;-1.652;2022-10-16T21:27:28;8.57;;;2.65;;
39948;SDS011;29070;48.102;-1.652;2022-10-16T21:32:28;7.63;;;2.93;;
39948;SDS011;29070;48.102;-1.652;2022-10-16T21:37:29;9.23;;;3.33;;
39948;SDS011;29070;48.102;-1.652;2022-10-16T21:42:29;7.37;;;2.93;;
39948;SDS011;29070;48.102;-1.652;2022-10-16T21:47:29;8.90;;;3.40;;
39948;SDS011;29070;48.102;-1.652;2022-10-16T21:52:31;6.90;;;3.10;;
39948;SDS011;29070;48.102;-1.652;2022-10-16T21:57:31;8.70;;;3.13;;
39948;SDS011;29070;48.102;-1.652;2022-10-16T22:02:33;5.60;;;3.30;;
39948;SDS011;29070;48.102;-1.652;2022-10-16T22:07:33;7.70;;;3.37;;
39948;SDS011;29070;48.102;-1.652;2022-10-16T22:12:33;12.50;;;3.03;;
39948;SDS011;29070;48.102;-1.652;2022-10-16T22:17:34;10.07;;;3.33;;
39948;SDS011;29070;48.102;-1.652;2022-10-16T22:22:34;6.57;;;3.40;;
39948;SDS011;29070;48.102;-1.652;2022-10-16T22:27:34;10.90;;;3.40;;
39948;SDS011;29070;48.102;-1.652;2022-10-16T22:32:35;11.43;;;3.67;;
39948;SDS011;29070;48.102;-1.652;2022-10-16T22:37:35;9.33;;;3.20;;
39948;SDS011;29070;48.102;-1.652;2022-10-16T22:42:35;6.67;;;3.63;;
39948;SDS011;29070;48.102;-1.652;2022-10-16T22:47:36;10.80;;;3.40;;
39948;SDS011;29070;48.102;-1.652;2022-10-16T22:52:36;9.43;;;3.87;;
39948;SDS011;29070;48.102;-1.652;2022-10-16T22:57:38;9.30;;;3.83;;
39948;SDS011;29070;48.102;-1.652;2022-10-16T23:02:38;7.90;;;3.20;;
39948;SDS011;29070;48.102;-1.652;2022-10-16T23:07:39;9.48;;;3.22;;
39948;SDS011;29070;48.102;-1.652;2022-10-16T23:12:39;10.47;;;3.73;;
39948;SDS011;29070;48.102;-1.652;2022-10-16T23:17:39;12.40;;;4.40;;
39948;SDS011;29070;48.102;-1.652;2022-10-16T23:22:40;9.23;;;3.60;;
39948;SDS011;29070;48.102;-1.652;2022-10-16T23:27:40;10.07;;;3.53;;
39948;SDS011;29070;48.102;-1.652;2022-10-16T23:32:41;11.33;;;3.43;;
39948;SDS011;29070;48.102;-1.652;2022-10-16T23:37:41;10.67;;;4.33;;
39948;SDS011;29070;48.102;-1.652;2022-10-16T23:42:41;12.03;;;3.67;;
39948;SDS011;29070;48.102;-1.652;2022-10-16T23:47:42;11.10;;;3.73;;
39948;SDS011;29070;48.102;-1.652;2022-10-16T23:52:42;7.67;;;3.87;;
39948;SDS011;29070;48.102;-1.652;2022-10-16T23:57:42;12.37;;;3.93;;
